Time;durP1;ratioP1;P1;durP2;ratioP2;P2;SDS_P1;SDS_P2;PMS_P1;PMS_P2;Temp;Humidity;BMP_temperature;BMP_pressure;BME280_temperature;BME280_humidity;BME280_pressure;Samples;Min_cycle;Max_cycle;Signal;HPM_P1;HPM_P2
2023/03/18 00:00:11;;;;;;;25.23;4.13;;;;;;;;;;5017638;28;20025;-29
2023/03/18 00:02:39;;;;;;;39.22;4.70;;;;;;;;;;5016362;28;20037;-28
2023/03/18 00:05:06;;;;;;;20.80;3.70;;;;;;;;;;5007620;28;20178;-28
2023/03/18 00:07:35;;;;;;;17.83;4.20;;;;;;;;;;5010739;28;20029;-29
2023/03/18 00:10:02;;;;;;;25.45;4.57;;;;;;;;;;5011526;28;20030;-28
2023/03/18 00:12:30;;;;;;;23.73;3.90;;;;;;;;;;5010322;28;20030;-29
2023/03/18 00:14:58;;;;;;;31.17;5.05;;;;;;;;;;5012571;28;20402;-30
2023/03/18 00:17:25;;;;;;;28.05;3.78;;;;;;;;;;5009765;28;20022;-28
2023/03/18 00:19:53;;;;;;;25.00;3.40;;;;;;;;;;5012109;28;20484;-27
2023/03/18 00:22:20;;;;;;;39.15;4.85;;;;;;;;;;5012188;28;20036;-28
2023/03/18 00:24:47;;;;;;;36.85;4.85;;;;;;;;;;5012415;28;20389;-35
2023/03/18 00:27:14;;;;;;;43.33;5.30;;;;;;;;;;5011624;28;20053;-30
2023/03/18 00:29:41;;;;;;;28.88;4.22;;;;;;;;;;5009003;28;20380;-28
2023/03/18 00:32:08;;;;;;;30.77;4.10;;;;;;;;;;5009975;28;20042;-28
2023/03/18 00:34:35;;;;;;;20.33;3.70;;;;;;;;;;5011784;28;20029;-30
2023/03/18 00:37:02;;;;;;;32.65;3.80;;;;;;;;;;5011471;28;20803;-30
2023/03/18 00:39:31;;;;;;;26.85;3.92;;;;;;;;;;5011658;28;20038;-29
2023/03/18 00:42:00;;;;;;;32.00;4.18;;;;;;;;;;5010728;28;20026;-28
2023/03/18 00:44:27;;;;;;;24.23;4.07;;;;;;;;;;5009521;28;20136;-28
2023/03/18 00:46:54;;;;;;;28.73;4.53;;;;;;;;;;5011069;28;20025;-28
2023/03/18 00:49:21;;;;;;;31.17;4.35;;;;;;;;;;5011340;28;20021;-28
2023/03/18 00:51:48;;;;;;;23.95;4.03;;;;;;;;;;5012435;28;20084;-27
2023/03/18 00:54:17;;;;;;;28.85;4.40;;;;;;;;;;5010616;28;20431;-28
2023/03/18 00:56:44;;;;;;;21.27;4.30;;;;;;;;;;5012438;28;20037;-27
2023/03/18 00:59:12;;;;;;;21.83;5.05;;;;;;;;;;5009652;28;20056;-27
2023/03/18 01:01:39;;;;;;;21.60;4.35;;;;;;;;;;5011545;28;20053;-28
2023/03/18 01:04:06;;;;;;;19.05;4.40;;;;;;;;;;5014237;28;20053;-27
2023/03/18 01:06:34;;;;;;;20.65;4.10;;;;;;;;;;5014365;28;20034;-26
2023/03/18 01:09:03;;;;;;;28.60;5.40;;;;;;;;;;5011870;28;20026;-27
2023/03/18 01:11:31;;;;;;;26.40;5.18;;;;;;;;;;5010570;28;20041;-28
2023/03/18 01:13:58;;;;;;;22.52;4.90;;;;;;;;;;5010483;28;20472;-28
2023/03/18 01:16:25;;;;;;;21.88;5.18;;;;;;;;;;5008681;28;20030;-28
2023/03/18 01:18:52;;;;;;;25.13;5.90;;;;;;;;;;5009828;28;20538;-27
2023/03/18 01:21:19;;;;;;;25.15;5.72;;;;;;;;;;5009375;28;20028;-27
2023/03/18 01:23:46;;;;;;;23.23;5.32;;;;;;;;;;5009264;28;20030;-28
2023/03/18 01:26:13;;;;;;;21.88;4.95;;;;;;;;;;5009669;28;20029;-28
2023/03/18 01:28:41;;;;;;;18.70;4.57;;;;;;;;;;5009916;28;20029;-28
2023/03/18 01:31:08;;;;;;;12.90;4.07;;;;;;;;;;5010329;28;20108;-28
2023/03/18 01:33:35;;;;;;;24.42;5.40;;;;;;;;;;5007009;28;20038;-29
2023/03/18 01:36:03;;;;;;;18.20;4.97;;;;;;;;;;4991282;28;20088;-30
2023/03/18 01:38:33;;;;;;;16.73;4.38;;;;;;;;;;4991587;28;20121;-30
2023/03/18 01:41:01;;;;;;;21.48;4.32;;;;;;;;;;4994229;28;20042;-34
2023/03/18 01:43:30;;;;;;;21.00;4.15;;;;;;;;;;4992806;28;20428;-28
2023/03/18 01:45:58;;;;;;;20.33;4.35;;;;;;;;;;4993127;28;20022;-30
2023/03/18 01:48:27;;;;;;;16.25;4.25;;;;;;;;;;4991006;28;20084;-29
2023/03/18 01:51:05;;;;;;;18.17;4.88;;;;;;;;;;4991980;28;20389;-28
2023/03/18 01:53:36;;;;;;;18.05;5.53;;;;;;;;;;4992634;28;20046;-31
2023/03/18 01:56:07;;;;;;;23.02;6.85;;;;;;;;;;4990568;28;20089;-32
2023/03/18 01:58:37;;;;;;;21.83;6.87;;;;;;;;;;4991271;28;20121;-30
2023/03/18 02:01:08;;;;;;;21.55;6.22;;;;;;;;;;4990832;28;20282;-28
2023/03/18 02:03:36;;;;;;;19.58;5.78;;;;;;;;;;4990719;28;20034;-30
2023/03/18 02:06:03;;;;;;;26.27;5.25;;;;;;;;;;4990737;28;20046;-29
2023/03/18 02:08:30;;;;;;;27.90;5.60;;;;;;;;;;4990861;28;20546;-29
2023/03/18 02:10:57;;;;;;;20.90;4.68;;;;;;;;;;5007083;28;20088;-29
2023/03/18 02:13:25;;;;;;;21.63;4.90;;;;;;;;;;4994057;28;20133;-29
2023/03/18 02:15:54;;;;;;;18.42;4.80;;;;;;;;;;4999697;28;20034;-28
2023/03/18 02:18:23;;;;;;;26.95;5.38;;;;;;;;;;4992091;28;20049;-28
2023/03/18 02:21:06;;;;;;;19.88;4.95;;;;;;;;;;5004319;28;20032;-28
2023/03/18 02:23:52;;;;;;;18.75;4.88;;;;;;;;;;5010367;28;20030;-28
2023/03/18 02:26:23;;;;;;;17.35;4.05;;;;;;;;;;5011184;28;20026;-29
2023/03/18 02:28:51;;;;;;;16.92;3.92;;;;;;;;;;5011195;28;20030;-28
2023/03/18 02:31:19;;;;;;;16.33;3.83;;;;;;;;;;5011131;28;20037;-29
2023/03/18 02:33:47;;;;;;;10.82;3.45;;;;;;;;;;5010990;28;20129;-28
2023/03/18 02:36:17;;;;;;;18.85;3.50;;;;;;;;;;5010986;28;20026;-29
2023/03/18 02:38:45;;;;;;;16.92;3.03;;;;;;;;;;5011188;28;20018;-28
2023/03/18 02:41:20;;;;;;;11.98;2.90;;;;;;;;;;5009999;28;20037;-30
2023/03/18 02:43:48;;;;;;;16.60;3.10;;;;;;;;;;5009535;28;20034;-28
2023/03/18 02:46:22;;;;;;;13.98;3.13;;;;;;;;;;5011409;28;20026;-28
2023/03/18 02:48:50;;;;;;;13.20;2.83;;;;;;;;;;5011711;28;20136;-28
2023/03/18 02:51:17;;;;;;;17.10;2.92;;;;;;;;;;5011682;28;20096;-28
2023/03/18 02:53:45;;;;;;;14.55;2.70;;;;;;;;;;5010173;28;20038;-28
2023/03/18 02:56:12;;;;;;;13.88;2.70;;;;;;;;;;5010332;28;20458;-28
2023/03/18 02:58:39;;;;;;;12.13;2.65;;;;;;;;;;5011608;28;20030;-27
2023/03/18 03:01:07;;;;;;;12.95;2.67;;;;;;;;;;5011604;28;20033;-28
2023/03/18 03:03:34;;;;;;;13.00;2.50;;;;;;;;;;5011448;28;20033;-27
2023/03/18 03:06:02;;;;;;;21.52;2.45;;;;;;;;;;5011282;28;20508;-29
2023/03/18 03:08:29;;;;;;;13.27;2.67;;;;;;;;;;5011580;28;20472;-28
2023/03/18 03:10:56;;;;;;;15.10;2.85;;;;;;;;;;5011378;28;20443;-28
2023/03/18 03:13:24;;;;;;;14.68;2.85;;;;;;;;;;5010024;28;20400;-28
2023/03/18 03:15:51;;;;;;;12.23;2.20;;;;;;;;;;5011489;28;20053;-29
2023/03/18 03:18:18;;;;;;;12.82;2.55;;;;;;;;;;5011446;28;20392;-28
2023/03/18 03:20:45;;;;;;;16.60;2.65;;;;;;;;;;5011446;28;20392;-28
2023/03/18 03:23:14;;;;;;;15.00;2.42;;;;;;;;;;4993610;28;20406;-29
2023/03/18 03:25:43;;;;;;;14.18;2.67;;;;;;;;;;5011427;28;20038;-28
2023/03/18 03:28:11;;;;;;;13.15;2.75;;;;;;;;;;5013698;28;20472;-28
2023/03/18 03:30:38;;;;;;;15.40;2.63;;;;;;;;;;5014982;28;20026;-28
2023/03/18 03:33:05;;;;;;;13.55;2.45;;;;;;;;;;5014802;28;20046;-28
2023/03/18 03:35:32;;;;;;;12.65;2.72;;;;;;;;;;5014866;28;20399;-29
2023/03/18 03:37:59;;;;;;;11.50;2.33;;;;;;;;;;5014769;28;20026;-29
2023/03/18 03:40:26;;;;;;;11.30;2.75;;;;;;;;;;5014714;28;20468;-29
2023/03/18 03:42:53;;;;;;;12.27;2.40;;;;;;;;;;5014563;28;20032;-28
2023/03/18 03:45:20;;;;;;;11.25;2.25;;;;;;;;;;5014603;28;20029;-29
2023/03/18 03:47:47;;;;;;;11.88;2.40;;;;;;;;;;5014373;28;20402;-27
2023/03/18 03:50:15;;;;;;;11.55;2.40;;;;;;;;;;5014587;28;20549;-28
2023/03/18 03:52:42;;;;;;;9.32;2.05;;;;;;;;;;5014399;28;20134;-28
2023/03/18 03:55:11;;;;;;;11.60;2.38;;;;;;;;;;5014510;28;20391;-28
2023/03/18 03:57:38;;;;;;;11.93;2.70;;;;;;;;;;5014609;28;20032;-28
2023/03/18 04:00:06;;;;;;;13.30;2.45;;;;;;;;;;5014388;28;20029;-28
2023/03/18 04:02:33;;;;;;;8.57;2.50;;;;;;;;;;5014282;28;20137;-27
2023/03/18 04:05:01;;;;;;;9.13;2.53;;;;;;;;;;5014128;28;20070;-28
2023/03/18 04:07:28;;;;;;;12.98;2.50;;;;;;;;;;5014284;28;20034;-27
2023/03/18 04:09:55;;;;;;;8.88;2.33;;;;;;;;;;5012856;28;20034;-28
2023/03/18 04:12:21;;;;;;;13.82;2.80;;;;;;;;;;5014015;28;20033;-31
2023/03/18 04:14:49;;;;;;;9.20;2.38;;;;;;;;;;5014313;28;20518;-29
2023/03/18 04:17:16;;;;;;;14.55;2.50;;;;;;;;;;5014170;28;20022;-27
2023/03/18 04:19:43;;;;;;;12.65;2.40;;;;;;;;;;5014121;28;20041;-28
2023/03/18 04:22:10;;;;;;;14.15;2.38;;;;;;;;;;5014118;28;20034;-28
2023/03/18 04:24:37;;;;;;;9.35;2.50;;;;;;;;;;5013826;28;20060;-28
2023/03/18 04:27:04;;;;;;;12.80;2.42;;;;;;;;;;5014002;28;20022;-28
2023/03/18 04:29:32;;;;;;;11.23;2.47;;;;;;;;;;5013989;28;20022;-27
2023/03/18 04:31:59;;;;;;;13.35;2.50;;;;;;;;;;5013744;28;20038;-28
2023/03/18 04:34:26;;;;;;;14.35;2.58;;;;;;;;;;5013602;28;20087;-28
2023/03/18 04:36:54;;;;;;;6.18;1.80;;;;;;;;;;5013799;28;20129;-28
2023/03/18 04:39:22;;;;;;;14.82;2.38;;;;;;;;;;5013496;28;20036;-28
2023/03/18 04:41:49;;;;;;;20.90;2.47;;;;;;;;;;5013692;28;20037;-28
2023/03/18 04:44:16;;;;;;;10.65;2.40;;;;;;;;;;5013617;28;20089;-28
2023/03/18 04:46:43;;;;;;;15.02;2.47;;;;;;;;;;5013624;28;20080;-28
2023/03/18 04:49:10;;;;;;;11.98;2.13;;;;;;;;;;5013438;28;20029;-27
2023/03/18 04:51:37;;;;;;;9.18;1.95;;;;;;;;;;5013445;28;20036;-29
2023/03/18 04:54:05;;;;;;;11.73;2.42;;;;;;;;;;5013317;28;20032;-28
2023/03/18 04:56:32;;;;;;;15.43;2.42;;;;;;;;;;5013371;28;20084;-29
2023/03/18 04:58:59;;;;;;;14.15;2.20;;;;;;;;;;5013392;28;20034;-28
2023/03/18 05:01:27;;;;;;;8.27;1.95;;;;;;;;;;5013152;28;20037;-29
2023/03/18 05:03:54;;;;;;;14.70;2.03;;;;;;;;;;5012971;28;20044;-28
2023/03/18 05:06:28;;;;;;;9.20;2.17;;;;;;;;;;5013214;28;20034;-28
2023/03/18 05:08:56;;;;;;;13.65;2.08;;;;;;;;;;5013032;28;20037;-29
2023/03/18 05:11:24;;;;;;;8.70;2.00;;;;;;;;;;5013038;28;20045;-28
2023/03/18 05:13:51;;;;;;;13.95;2.38;;;;;;;;;;5012780;28;20052;-28
2023/03/18 05:16:18;;;;;;;11.50;2.28;;;;;;;;;;5012934;28;20088;-28
2023/03/18 05:18:45;;;;;;;9.13;2.10;;;;;;;;;;5012964;28;20029;-27
2023/03/18 05:21:12;;;;;;;10.77;2.30;;;;;;;;;;5012986;28;20641;-27
2023/03/18 05:23:39;;;;;;;12.05;2.35;;;;;;;;;;5012842;28;20026;-28
2023/03/18 05:26:06;;;;;;;14.32;2.50;;;;;;;;;;5012803;28;20030;-28
2023/03/18 05:28:34;;;;;;;9.52;2.03;;;;;;;;;;5012853;28;20104;-28
2023/03/18 05:31:01;;;;;;;12.68;2.55;;;;;;;;;;5012727;28;20037;-28
2023/03/18 05:33:28;;;;;;;13.27;2.40;;;;;;;;;;5012600;28;20126;-28
2023/03/18 05:35:55;;;;;;;17.98;2.40;;;;;;;;;;5012624;28;20420;-28
2023/03/18 05:38:23;;;;;;;14.75;2.58;;;;;;;;;;5012656;28;20105;-28
2023/03/18 05:40:49;;;;;;;9.88;2.47;;;;;;;;;;5012659;28;20030;-28
2023/03/18 05:43:17;;;;;;;10.95;2.47;;;;;;;;;;5012499;28;20495;-29
2023/03/18 05:45:43;;;;;;;9.63;2.42;;;;;;;;;;5012499;28;20030;-28
2023/03/18 05:48:11;;;;;;;13.50;2.35;;;;;;;;;;5012462;28;20030;-27
2023/03/18 05:50:40;;;;;;;7.80;1.95;;;;;;;;;;5011689;28;20030;-28
2023/03/18 05:53:08;;;;;;;9.15;2.03;;;;;;;;;;5012201;28;20391;-28
2023/03/18 05:55:35;;;;;;;14.30;2.53;;;;;;;;;;5012584;28;20042;-27
2023/03/18 05:58:02;;;;;;;14.32;2.30;;;;;;;;;;5012365;28;20030;-28
2023/03/18 06:00:30;;;;;;;10.65;2.00;;;;;;;;;;5012369;28;20036;-28
2023/03/18 06:02:58;;;;;;;11.35;2.30;;;;;;;;;;5009700;28;20045;-27
2023/03/18 06:05:25;;;;;;;13.10;2.38;;;;;;;;;;5012075;28;20128;-28
2023/03/18 06:07:53;;;;;;;9.30;2.30;;;;;;;;;;5012188;28;20025;-27
2023/03/18 06:10:21;;;;;;;13.30;2.95;;;;;;;;;;5012166;28;20026;-28
2023/03/18 06:12:49;;;;;;;10.07;1.90;;;;;;;;;;5011975;28;20030;-27
2023/03/18 06:15:16;;;;;;;7.60;1.88;;;;;;;;;;5011906;28;20045;-28
2023/03/18 06:17:43;;;;;;;9.35;2.63;;;;;;;;;;5012061;28;20109;-28
2023/03/18 06:20:11;;;;;;;7.35;2.20;;;;;;;;;;5012017;28;20024;-30
2023/03/18 06:22:38;;;;;;;10.55;2.40;;;;;;;;;;5011761;28;20034;-28
2023/03/18 06:25:07;;;;;;;10.68;2.35;;;;;;;;;;5011912;28;20036;-28
2023/03/18 06:27:35;;;;;;;10.57;2.47;;;;;;;;;;5011910;28;20022;-28
2023/03/18 06:30:02;;;;;;;11.35;2.47;;;;;;;;;;5011755;28;20457;-28
2023/03/18 06:32:29;;;;;;;8.07;1.80;;;;;;;;;;5011693;28;20038;-28
2023/03/18 06:34:56;;;;;;;12.25;2.60;;;;;;;;;;5011825;28;20034;-27
2023/03/18 06:37:25;;;;;;;11.57;2.70;;;;;;;;;;5011858;28;20050;-27
2023/03/18 06:39:52;;;;;;;10.13;2.10;;;;;;;;;;5011782;28;20030;-28
2023/03/18 06:42:19;;;;;;;11.48;2.58;;;;;;;;;;5011707;28;20026;-28
2023/03/18 06:44:49;;;;;;;7.78;2.15;;;;;;;;;;5011775;28;20080;-27
2023/03/18 06:47:20;;;;;;;10.65;2.55;;;;;;;;;;5011567;28;20058;-27
2023/03/18 06:49:48;;;;;;;10.48;2.78;;;;;;;;;;5011549;28;20551;-28
2023/03/18 06:52:16;;;;;;;11.13;2.20;;;;;;;;;;5011525;28;20132;-27
2023/03/18 06:54:43;;;;;;;6.80;2.03;;;;;;;;;;5011617;28;20034;-28
2023/03/18 06:57:10;;;;;;;9.50;2.17;;;;;;;;;;5011498;28;20045;-28
2023/03/18 06:59:38;;;;;;;8.55;2.55;;;;;;;;;;5011613;28;20070;-28
2023/03/18 07:02:07;;;;;;;12.80;2.40;;;;;;;;;;5013356;28;20087;-29
2023/03/18 07:04:34;;;;;;;9.68;2.72;;;;;;;;;;5015135;28;20567;-27
2023/03/18 07:07:01;;;;;;;10.73;2.80;;;;;;;;;;5015527;28;20467;-28
2023/03/18 07:09:28;;;;;;;9.45;2.20;;;;;;;;;;5015453;28;20620;-28
2023/03/18 07:11:55;;;;;;;11.50;2.25;;;;;;;;;;5015344;28;20498;-28
2023/03/18 07:14:23;;;;;;;13.65;2.95;;;;;;;;;;5015212;28;20028;-28
2023/03/18 07:16:50;;;;;;;12.95;2.58;;;;;;;;;;5015314;28;20057;-28
2023/03/18 07:19:17;;;;;;;7.85;2.22;;;;;;;;;;5015265;28;20495;-28
2023/03/18 07:21:45;;;;;;;8.00;1.88;;;;;;;;;;5015192;28;20029;-28
2023/03/18 07:24:13;;;;;;;9.25;2.60;;;;;;;;;;5015101;28;20033;-28
2023/03/18 07:26:40;;;;;;;11.70;2.40;;;;;;;;;;5015077;28;20026;-28
2023/03/18 07:29:07;;;;;;;9.23;2.42;;;;;;;;;;5015027;28;20022;-27
2023/03/18 07:31:34;;;;;;;10.98;2.42;;;;;;;;;;5015034;28;20029;-28
2023/03/18 07:34:01;;;;;;;8.18;2.28;;;;;;;;;;5014820;28;20037;-28
2023/03/18 07:36:28;;;;;;;10.00;2.38;;;;;;;;;;5014950;28;20053;-28
2023/03/18 07:38:55;;;;;;;6.93;1.92;;;;;;;;;;4997131;28;20435;-29
2023/03/18 07:41:22;;;;;;;8.05;2.08;;;;;;;;;;5015019;28;20042;-28
2023/03/18 07:43:51;;;;;;;9.05;2.17;;;;;;;;;;5014493;28;20133;-28
2023/03/18 07:46:18;;;;;;;7.55;2.28;;;;;;;;;;5014826;28;20026;-28
2023/03/18 07:48:45;;;;;;;7.93;2.17;;;;;;;;;;5014632;28;20542;-29
2023/03/18 07:51:14;;;;;;;7.45;2.10;;;;;;;;;;5014562;28;20026;-29
2023/03/18 07:53:41;;;;;;;8.40;2.40;;;;;;;;;;5014330;28;20044;-29
2023/03/18 07:56:11;;;;;;;11.40;2.38;;;;;;;;;;5014588;28;20099;-29
2023/03/18 07:58:38;;;;;;;9.75;2.30;;;;;;;;;;5014569;28;20022;-28
2023/03/18 08:01:06;;;;;;;7.22;2.55;;;;;;;;;;5014333;28;20053;-30
2023/03/18 08:03:33;;;;;;;6.93;2.10;;;;;;;;;;5014565;28;20384;-28
2023/03/18 08:06:01;;;;;;;8.45;1.65;;;;;;;;;;5014002;28;20054;-29
2023/03/18 08:08:28;;;;;;;10.40;2.20;;;;;;;;;;5014331;28;20034;-29
2023/03/18 08:11:01;;;;;;;12.55;2.63;;;;;;;;;;5014121;28;20514;-28
2023/03/18 08:13:29;;;;;;;8.57;2.10;;;;;;;;;;5013542;28;20050;-28
2023/03/18 08:15:56;;;;;;;6.22;1.88;;;;;;;;;;5014215;28;20033;-28
2023/03/18 08:18:23;;;;;;;12.48;2.78;;;;;;;;;;5014062;28;20112;-28
2023/03/18 08:20:50;;;;;;;7.45;2.17;;;;;;;;;;5014109;28;20432;-28
2023/03/18 08:23:17;;;;;;;9.85;2.10;;;;;;;;;;5013893;28;20388;-28
2023/03/18 08:25:47;;;;;;;9.45;2.20;;;;;;;;;;5013970;28;20026;-28
2023/03/18 08:28:14;;;;;;;10.32;2.60;;;;;;;;;;5013969;28;20061;-28
2023/03/18 08:30:41;;;;;;;9.77;2.72;;;;;;;;;;5013893;28;20411;-28
2023/03/18 08:33:08;;;;;;;7.28;2.60;;;;;;;;;;5013731;28;20121;-28
2023/03/18 08:35:35;;;;;;;10.43;2.20;;;;;;;;;;5013777;28;20472;-29
2023/03/18 08:38:03;;;;;;;12.48;2.45;;;;;;;;;;5013731;28;20026;-29
2023/03/18 08:40:30;;;;;;;9.68;2.13;;;;;;;;;;5013657;28;20083;-30
2023/03/18 08:42:57;;;;;;;6.25;1.90;;;;;;;;;;5013652;28;20486;-28
2023/03/18 08:45:26;;;;;;;7.82;2.28;;;;;;;;;;5013484;28;20137;-28
2023/03/18 08:47:53;;;;;;;8.90;2.13;;;;;;;;;;5013485;28;20040;-28
2023/03/18 08:50:21;;;;;;;9.05;2.20;;;;;;;;;;5013600;28;20030;-28
2023/03/18 08:52:49;;;;;;;10.75;2.28;;;;;;;;;;5013353;28;20087;-29
2023/03/18 08:55:16;;;;;;;9.15;2.13;;;;;;;;;;5013279;28;20033;-28
2023/03/18 08:57:43;;;;;;;9.30;1.90;;;;;;;;;;5013279;28;20037;-29
2023/03/18 09:00:10;;;;;;;10.52;1.95;;;;;;;;;;5013344;28;20105;-28
2023/03/18 09:02:37;;;;;;;7.45;2.00;;;;;;;;;;5013201;28;20026;-28
2023/03/18 09:05:04;;;;;;;11.20;2.40;;;;;;;;;;5013054;28;20053;-28
2023/03/18 09:07:31;;;;;;;8.07;2.00;;;;;;;;;;5013284;28;20040;-28
2023/03/18 09:09:58;;;;;;;8.80;2.65;;;;;;;;;;5012938;28;20033;-29
2023/03/18 09:12:25;;;;;;;7.00;2.15;;;;;;;;;;5012977;28;20046;-28
2023/03/18 09:14:52;;;;;;;9.80;1.95;;;;;;;;;;5013047;28;20495;-29
2023/03/18 09:17:19;;;;;;;10.95;2.20;;;;;;;;;;5013071;28;20040;-29
2023/03/18 09:19:46;;;;;;;9.13;2.30;;;;;;;;;;5013061;28;20656;-29
2023/03/18 09:22:13;;;;;;;6.35;1.80;;;;;;;;;;5012936;28;20057;-28
2023/03/18 09:24:40;;;;;;;8.82;2.22;;;;;;;;;;5012109;28;20503;-28
2023/03/18 09:27:07;;;;;;;10.20;2.47;;;;;;;;;;5012707;28;20108;-29
2023/03/18 09:29:34;;;;;;;7.07;1.80;;;;;;;;;;5012793;28;20036;-28
2023/03/18 09:32:01;;;;;;;7.05;1.85;;;;;;;;;;5012615;28;20480;-29
2023/03/18 09:34:28;;;;;;;5.72;2.00;;;;;;;;;;5012723;28;20021;-29
2023/03/18 09:36:56;;;;;;;8.32;1.90;;;;;;;;;;5012687;28;20121;-28
2023/03/18 09:39:24;;;;;;;7.70;2.25;;;;;;;;;;5012419;28;20554;-28
2023/03/18 09:42:02;;;;;;;8.00;1.83;;;;;;;;;;5012547;28;20481;-28
2023/03/18 09:44:29;;;;;;;7.15;1.90;;;;;;;;;;5012564;28;20025;-28
2023/03/18 09:47:14;;;;;;;7.90;1.85;;;;;;;;;;5012546;28;20427;-27
2023/03/18 09:49:50;;;;;;;8.95;2.08;;;;;;;;;;5012204;28;20479;-28
2023/03/18 09:52:32;;;;;;;8.77;2.25;;;;;;;;;;5012289;28;20034;-28
2023/03/18 09:55:06;;;;;;;8.60;1.90;;;;;;;;;;5012432;28;20098;-27
2023/03/18 09:57:37;;;;;;;7.53;1.60;;;;;;;;;;5012099;28;20100;-27
2023/03/18 10:00:08;;;;;;;7.57;2.00;;;;;;;;;;5012289;28;20030;-27
2023/03/18 10:02:55;;;;;;;7.20;1.73;;;;;;;;;;5012165;28;20475;-27
2023/03/18 10:05:32;;;;;;;8.25;1.80;;;;;;;;;;5011867;28;20046;-28
2023/03/18 10:08:03;;;;;;;8.55;1.73;;;;;;;;;;5012213;28;20025;-29
2023/03/18 10:10:42;;;;;;;8.98;1.70;;;;;;;;;;5012190;28;20076;-28
2023/03/18 10:13:23;;;;;;;7.57;2.35;;;;;;;;;;5011825;28;20143;-28
2023/03/18 10:15:55;;;;;;;10.63;1.98;;;;;;;;;;5012076;28;20030;-28
2023/03/18 10:18:30;;;;;;;7.63;1.75;;;;;;;;;;5012232;28;20034;-28
2023/03/18 10:20:58;;;;;;;7.93;2.20;;;;;;;;;;5012096;28;20423;-29
2023/03/18 10:23:36;;;;;;;7.65;2.05;;;;;;;;;;5011978;28;20699;-27
2023/03/18 10:26:10;;;;;;;6.88;1.58;;;;;;;;;;5011977;28;20037;-28
2023/03/18 10:28:37;;;;;;;6.10;1.35;;;;;;;;;;5011980;28;20036;-28
2023/03/18 10:31:16;;;;;;;4.47;1.60;;;;;;;;;;5011749;28;20069;-29
2023/03/18 10:34:01;;;;;;;10.95;1.70;;;;;;;;;;5011791;28;20061;-28
2023/03/18 10:36:48;;;;;;;9.80;1.73;;;;;;;;;;5014134;28;20037;-28
2023/03/18 10:39:16;;;;;;;10.77;1.58;;;;;;;;;;5018237;28;20111;-28
2023/03/18 10:41:44;;;;;;;10.50;2.33;;;;;;;;;;5018359;28;20026;-30
2023/03/18 10:44:19;;;;;;;10.18;1.95;;;;;;;;;;5018323;28;20026;-29
2023/03/18 10:46:47;;;;;;;6.78;1.70;;;;;;;;;;5018275;28;20423;-27
2023/03/18 10:49:17;;;;;;;10.60;1.80;;;;;;;;;;5018161;28;20496;-28
2023/03/18 10:51:47;;;;;;;6.97;1.75;;;;;;;;;;5018158;28;20637;-28
2023/03/18 10:54:31;;;;;;;7.07;1.90;;;;;;;;;;5018210;28;20037;-29
2023/03/18 10:56:59;;;;;;;11.48;2.10;;;;;;;;;;5018112;28;20037;-29
2023/03/18 10:59:27;;;;;;;11.65;2.20;;;;;;;;;;5018197;28;20495;-28
2023/03/18 11:01:59;;;;;;;7.72;1.77;;;;;;;;;;5018222;28;20120;-27
2023/03/18 11:04:27;;;;;;;14.00;2.72;;;;;;;;;;5017952;28;20064;-28
2023/03/18 11:07:02;;;;;;;8.27;2.22;;;;;;;;;;5018192;28;20032;-28
2023/03/18 11:09:35;;;;;;;8.57;1.83;;;;;;;;;;5017781;28;20133;-28
2023/03/18 11:12:06;;;;;;;9.32;2.05;;;;;;;;;;4996773;28;20065;-28
2023/03/18 11:14:41;;;;;;;12.13;2.20;;;;;;;;;;4998351;28;20042;-28
2023/03/18 11:17:21;;;;;;;7.00;1.63;;;;;;;;;;4998489;28;20039;-27
2023/03/18 11:19:48;;;;;;;9.65;2.30;;;;;;;;;;5005801;28;20021;-28
2023/03/18 11:22:18;;;;;;;15.68;2.65;;;;;;;;;;5017102;28;20038;-29
2023/03/18 11:24:47;;;;;;;10.77;2.10;;;;;;;;;;5017298;28;20032;-27
2023/03/18 11:27:17;;;;;;;14.07;2.05;;;;;;;;;;5017418;28;20129;-28
2023/03/18 11:29:54;;;;;;;11.65;1.77;;;;;;;;;;5017071;28;20022;-28
2023/03/18 11:32:32;;;;;;;13.50;2.13;;;;;;;;;;5017063;28;20049;-29
2023/03/18 11:35:01;;;;;;;13.65;1.65;;;;;;;;;;5017118;28;20109;-27
2023/03/18 11:37:33;;;;;;;17.50;2.13;;;;;;;;;;5016823;28;20383;-28
2023/03/18 11:40:17;;;;;;;17.75;2.47;;;;;;;;;;5016785;28;20108;-28
2023/03/18 11:42:45;;;;;;;11.07;2.20;;;;;;;;;;5017121;28;20503;-28
2023/03/18 11:45:37;;;;;;;16.65;1.92;;;;;;;;;;5017025;28;20101;-29
2023/03/18 11:48:06;;;;;;;13.43;1.98;;;;;;;;;;5001423;28;20034;-27
2023/03/18 11:50:44;;;;;;;7.63;1.90;;;;;;;;;;5013170;28;20034;-26
2023/03/18 11:53:27;;;;;;;11.80;2.10;;;;;;;;;;5012021;28;20049;-28
2023/03/18 11:55:54;;;;;;;;;;;;;;;;;;5014130;28;20064;-28
2023/03/18 11:58:20;;;;;;;;;;;;;;;;;;5014272;28;19913;-29
2023/03/18 12:00:47;;;;;;;;;;;;;;;;;;5014836;28;19955;-28
2023/03/18 12:03:14;;;;;;;;;;;;;;;;;;5014679;28;20368;-30
2023/03/18 12:05:40;;;;;;;;;;;;;;;;;;5012441;28;19921;-30
2023/03/18 12:08:08;;;;;;;;;;;;;;;;;;5011273;28;19910;-28
2023/03/18 12:10:35;;;;;;;;;;;;;;;;;;5014305;28;19913;-28
2023/03/18 12:13:02;;;;;;;;;;;;;;;;;;5013966;28;19918;-30
2023/03/18 12:15:28;;;;;;;;;;;;;;;;;;5014589;28;20367;-28
2023/03/18 12:17:55;;;;;;;;;;;;;;;;;;5014066;28;19992;-28
2023/03/18 12:20:21;;;;;;;;;;;;;;;;;;5014429;28;19916;-26
2023/03/18 12:22:49;;;;;;;;;;;;;;;;;;5014038;28;19968;-27
2023/03/18 12:25:15;;;;;;;;;;;;;;;;;;5014387;28;20375;-28
2023/03/18 12:27:42;;;;;;;;;;;;;;;;;;5014038;28;20356;-27
2023/03/18 12:30:08;;;;;;;;;;;;;;;;;;5013605;28;19905;-27
2023/03/18 12:32:35;;;;;;;;;;;;;;;;;;5014174;28;19936;-26
2023/03/18 12:35:01;;;;;;;;;;;;;;;;;;5014146;28;19916;-27
2023/03/18 12:37:30;;;;;;;;;;;;;;;;;;5028800;28;19909;-26
2023/03/18 12:39:57;;;;;;;;;;;;;;;;;;5013632;28;20418;-27
2023/03/18 12:42:24;;;;;;;;;;;;;;;;;;5013690;28;20025;-27
2023/03/18 12:44:50;;;;;;;;;;;;;;;;;;5013734;28;19914;-27
2023/03/18 12:47:17;;;;;;;;;;;;;;;;;;5013488;28;19917;-27
2023/03/18 12:49:43;;;;;;;;;;;;;;;;;;5028915;28;19921;-27
2023/03/18 12:52:10;;;;;;;;;;;;;;;;;;5013658;28;19910;-26
2023/03/18 12:54:36;;;;;;;;;;;;;;;;;;5013674;28;19909;-26
2023/03/18 12:57:02;;;;;;;;;;;;;;;;;;5013477;28;19920;-27
2023/03/18 12:59:29;;;;;;;;;;;;;;;;;;5013693;28;19959;-27
2023/03/18 13:01:55;;;;;;;;;;;;;;;;;;5013567;28;19909;-26
2023/03/18 13:04:21;;;;;;;;;;;;;;;;;;5012423;28;19918;-27
2023/03/18 13:06:49;;;;;;;;;;;;;;;;;;5013000;28;19959;-27
2023/03/18 13:09:16;;;;;;;;;;;;;;;;;;5012969;28;19913;-27
2023/03/18 13:11:43;;;;;;;;;;;;;;;;;;5012975;28;19984;-27
2023/03/18 13:14:09;;;;;;;;;;;;;;;;;;5012140;28;19936;-27
2023/03/18 13:16:36;;;;;;;;;;;;;;;;;;5012578;28;19936;-28
2023/03/18 13:19:02;;;;;;;;;;;;;;;;;;5013219;28;20012;-27
2023/03/18 13:21:29;;;;;;;;;;;;;;;;;;5013031;28;19948;-27
2023/03/18 13:23:56;;;;;;;;;;;;;;;;;;5013106;28;19940;-27
2023/03/18 13:26:22;;;;;;;;;;;;;;;;;;5012583;28;19909;-27
2023/03/18 13:28:49;;;;;;;;;;;;;;;;;;5012807;28;19905;-28
2023/03/18 13:31:15;;;;;;;;;;;;;;;;;;5013014;28;19933;-27
2023/03/18 13:33:41;;;;;;;;;;;;;;;;;;5012671;28;19967;-26
2023/03/18 13:36:09;;;;;;;;;;;;;;;;;;5012817;28;19920;-26
2023/03/18 13:38:35;;;;;;;;;;;;;;;;;;5011885;28;20275;-26
2023/03/18 13:41:02;;;;;;;;;;;;;;;;;;5012701;28;19932;-26
2023/03/18 13:43:28;;;;;;;;;;;;;;;;;;5012634;28;19916;-26
2023/03/18 13:45:55;;;;;;;;;;;;;;;;;;5012739;28;19905;-26
2023/03/18 13:48:21;;;;;;;;;;;;;;;;;;5011855;28;20412;-27
2023/03/18 13:50:47;;;;;;;;;;;;;;;;;;5012523;28;19905;-28
2023/03/18 13:53:14;;;;;;;;;;;;;;;;;;5012427;28;20393;-28
2023/03/18 13:55:43;;;;;;;;;;;;;;;;;;5012593;28;19916;-26
2023/03/18 13:58:09;;;;;;;;;;;;;;;;;;5012037;28;19948;-27
2023/03/18 14:00:37;;;;;;;;;;;;;;;;;;5012619;28;19906;-26
2023/03/18 14:03:03;;;;;;;;;;;;;;;;;;5011606;28;19913;-26
2023/03/18 14:05:29;;;;;;;;;;;;;;;;;;5011766;28;19917;-26
2023/03/18 14:07:56;;;;;;;;;;;;;;;;;;5011992;28;19909;-27
2023/03/18 14:10:23;;;;;;;;;;;;;;;;;;5011798;28;19941;-26
2023/03/18 14:12:50;;;;;;;;;;;;;;;;;;5011794;28;19920;-27
2023/03/18 14:15:16;;;;;;;;;;;;;;;;;;5027423;28;20389;-26
2023/03/18 14:17:45;;;;;;;;;;;;;;;;;;5011879;28;19913;-27
2023/03/18 14:20:11;;;;;;;;;;;;;;;;;;5011428;28;19960;-27
2023/03/18 14:22:38;;;;;;;;;;;;;;;;;;5011479;28;20382;-27
2023/03/18 14:25:04;;;;;;;;;;;;;;;;;;5010781;28;19913;-27
2023/03/18 14:27:31;;;;;;;;;;;;;;;;;;5008973;28;19916;-27
2023/03/18 14:29:57;;;;;;;;;;;;;;;;;;5010714;28;19977;-29
2023/03/18 14:32:23;;;;;;;;;;;;;;;;;;5010709;28;19940;-28
2023/03/18 14:34:50;;;;;;;;;;;;;;;;;;5010740;28;19999;-27
2023/03/18 14:37:16;;;;;;;;;;;;;;;;;;5010378;28;19916;-27
2023/03/18 14:39:42;;;;;;;;;;;;;;;;;;5010670;28;19909;-27
2023/03/18 14:42:09;;;;;;;;;;;;;;;;;;5010473;28;19932;-27
2023/03/18 14:44:35;;;;;;;;;;;;;;;;;;5011201;28;20287;-28
2023/03/18 14:47:01;;;;;;;;;;;;;;;;;;5010382;28;19917;-27
2023/03/18 14:49:28;;;;;;;;;;;;;;;;;;5001071;28;19920;-30
2023/03/18 14:51:54;;;;;;;;;;;;;;;;;;5001311;28;20261;-28
2023/03/18 14:54:22;;;;;;;;;;;;;;;;;;5006661;28;20431;-38
2023/03/18 14:56:49;;;;;;;;;;;;;;;;;;5028535;22;20346;-42
2023/03/18 14:59:16;;;;;;;;;;;;;;;;;;5047709;28;19913;-44
2023/03/18 15:01:42;;;;;;;;;;;;;;;;;;5042615;28;19999;-39
2023/03/18 15:04:09;;;;;;;;;;;;;;;;;;5050295;28;20035;-41
2023/03/18 15:06:35;;;;;;;;;;;;;;;;;;5050564;28;19914;-41